Time;durP1;ratioP1;P1;durP2;ratioP2;P2;SDS_P1;SDS_P2;PMS_P1;PMS_P2;Temp;Humidity;BMP_temperature;BMP_pressure;BME280_temperature;BME280_humidity;BME280_pressure;Samples;Min_cycle;Max_cycle;Signal;HPM_P1;HPM_P2
2022/12/20 00:00:33;;;;;;;6.76;6.18;;;;;;;-3.10;67.89;103157.00;435579;122;922750;-80
2022/12/20 00:01:37;;;;;;;6.56;6.09;;;;;;;-3.12;68.00;103160.65;440419;120;922595;-79
2022/12/20 00:02:40;;;;;;;6.93;6.39;;;;;;;-3.15;67.86;103168.80;442879;120;922927;-82
2022/12/20 00:03:44;;;;;;;7.06;6.46;;;;;;;-3.18;67.91;103164.44;442955;119;930582;-81
2022/12/20 00:04:47;;;;;;;7.05;6.48;;;;;;;-3.21;67.94;103167.25;442985;117;922656;-78
2022/12/20 00:05:50;;;;;;;6.58;6.08;;;;;;;-3.24;68.03;103164.69;442970;119;922532;-79
2022/12/20 00:06:53;;;;;;;6.26;5.77;;;;;;;-3.25;68.09;103162.11;442519;119;922480;-80
2022/12/20 00:07:56;;;;;;;6.40;5.89;;;;;;;-3.27;68.00;103164.83;443024;119;923489;-80
2022/12/20 00:09:01;;;;;;;6.17;5.72;;;;;;;-3.28;68.16;103170.22;443046;119;922589;-79
2022/12/20 00:10:05;;;;;;;6.47;5.92;;;;;;;-3.31;68.21;103160.55;442853;118;922683;-79
2022/12/20 00:11:09;;;;;;;6.95;6.42;;;;;;;-3.32;68.27;103166.81;442689;119;922555;-81
2022/12/20 00:12:12;;;;;;;6.50;6.02;;;;;;;-3.33;68.19;103167.73;442962;119;922510;-80
2022/12/20 00:13:15;;;;;;;7.12;6.58;;;;;;;-3.33;68.25;103170.41;442997;119;930514;-80
2022/12/20 00:14:18;;;;;;;6.91;6.36;;;;;;;-3.35;68.23;103166.92;443095;119;922583;-81
2022/12/20 00:15:22;;;;;;;6.92;6.41;;;;;;;-3.36;68.24;103165.18;442950;117;922895;-81
2022/12/20 00:16:27;;;;;;;6.65;6.09;;;;;;;-3.37;68.39;103160.80;442507;119;930477;-80
2022/12/20 00:17:30;;;;;;;6.98;6.38;;;;;;;-3.38;68.31;103167.94;442845;119;923291;-79
2022/12/20 00:18:34;;;;;;;6.64;6.14;;;;;;;-3.39;68.47;103162.66;442918;119;922427;-81
2022/12/20 00:19:37;;;;;;;9.21;7.11;;;;;;;-3.42;68.36;103160.97;442881;118;930454;-79
2022/12/20 00:20:40;;;;;;;7.82;7.11;;;;;;;-3.43;68.42;103164.59;443050;119;922648;-80
2022/12/20 00:21:43;;;;;;;8.12;7.42;;;;;;;-3.43;68.44;103163.72;437757;119;922530;-82
2022/12/20 00:22:47;;;;;;;8.09;7.39;;;;;;;-3.43;68.57;103169.05;435730;122;923213;-80
2022/12/20 00:23:51;;;;;;;7.87;7.28;;;;;;;-3.45;68.57;103169.10;435653;122;922717;-81
2022/12/20 00:24:54;;;;;;;7.71;7.02;;;;;;;-3.44;68.48;103159.30;435555;120;922746;-80
2022/12/20 00:26:03;;;;;;;8.09;7.50;;;;;;;-3.45;68.58;103163.77;435832;119;922505;-79
2022/12/20 00:27:06;;;;;;;8.22;7.61;;;;;;;-3.45;68.59;103162.89;435511;122;922911;-80
2022/12/20 00:28:09;;;;;;;8.36;7.67;;;;;;;-3.45;68.70;103157.56;435693;122;922606;-79
2022/12/20 00:29:13;;;;;;;8.36;7.66;;;;;;;-3.45;68.64;103152.23;435724;122;922621;-79
2022/12/20 00:30:17;;;;;;;8.26;7.58;;;;;;;-3.47;68.71;103157.61;435667;120;922588;-82
2022/12/20 00:31:22;;;;;;;8.66;7.96;;;;;;;-3.48;68.72;103155.91;435831;119;922473;-81
2022/12/20 00:32:26;;;;;;;8.34;7.77;;;;;;;-3.49;68.61;103154.16;435550;122;922764;-81
2022/12/20 00:33:30;;;;;;;9.16;8.46;;;;;;;-3.49;68.74;103159.50;435656;122;922598;-80
2022/12/20 00:34:33;;;;;;;9.45;8.75;;;;;;;-3.50;68.61;103157.75;435650;120;922662;-81
2022/12/20 00:35:42;;;;;;;9.48;8.66;;;;;;;-3.51;68.63;103147.14;435561;122;923141;-80
2022/12/20 00:36:45;;;;;;;8.69;8.05;;;;;;;-3.52;68.70;103148.06;441103;119;922491;-82
2022/12/20 00:37:49;;;;;;;9.03;8.30;;;;;;;-3.55;68.60;103146.41;443059;119;922527;-80
2022/12/20 00:38:53;;;;;;;8.70;8.00;;;;;;;-3.56;68.61;103149.13;443005;119;922518;-81
2022/12/20 00:39:57;;;;;;;9.40;8.71;;;;;;;-3.57;68.71;103142.05;442890;119;922495;-79
2022/12/20 00:41:06;;;;;;;8.26;7.61;;;;;;;-3.56;68.63;103149.13;442684;119;922725;-80
2022/12/20 00:42:11;;;;;;;7.63;7.03;;;;;;;-3.58;68.66;103157.17;435547;122;922811;-80
2022/12/20 00:43:14;;;;;;;8.06;7.46;;;;;;;-3.60;68.66;103151.05;435632;122;922486;-81
2022/12/20 00:44:17;;;;;;;7.37;6.87;;;;;;;-3.59;68.81;103154.59;435731;122;922645;-80
2022/12/20 00:45:21;;;;;;;8.13;7.53;;;;;;;-3.61;68.71;103149.31;435732;120;922613;-81
2022/12/20 00:46:24;;;;;;;6.97;6.41;;;;;;;-3.62;68.72;103150.23;436287;119;922587;-79
2022/12/20 00:47:28;;;;;;;7.49;6.92;;;;;;;-3.63;68.84;103152.95;435643;122;922478;-81
2022/12/20 00:48:31;;;;;;;7.02;6.51;;;;;;;-3.64;68.81;103149.45;435699;122;930842;-80
2022/12/20 00:49:34;;;;;;;6.81;6.18;;;;;;;-3.65;68.81;103147.70;435625;120;922793;-79
2022/12/20 00:50:37;;;;;;;7.01;6.49;;;;;;;-3.65;68.68;103146.83;435718;122;922595;-81
2022/12/20 00:51:41;;;;;;;6.78;6.24;;;;;;;-3.67;68.74;103149.55;440614;119;922571;-81
2022/12/20 00:52:44;;;;;;;6.14;5.68;;;;;;;-3.68;68.67;103142.48;443027;119;922579;-81
2022/12/20 00:53:47;;;;;;;6.16;5.67;;;;;;;-3.69;68.72;103148.73;442919;119;922519;-79
2022/12/20 00:54:52;;;;;;;6.31;5.82;;;;;;;-3.69;68.80;103145.23;442840;119;923267;-81
2022/12/20 00:55:55;;;;;;;6.33;5.84;;;;;;;-3.70;68.83;103147.02;436364;118;922642;-81
2022/12/20 00:56:59;;;;;;;6.35;5.89;;;;;;;-3.70;68.85;103143.48;442652;119;923919;-81
2022/12/20 00:58:02;;;;;;;6.29;5.79;;;;;;;-3.72;68.72;103142.66;442945;119;922748;-80
2022/12/20 00:59:05;;;;;;;6.71;6.24;;;;;;;-3.71;68.81;103139.95;442922;119;922980;-80
2022/12/20 01:00:10;;;;;;;6.85;6.31;;;;;;;-3.72;68.95;103138.20;442940;118;923010;-80
2022/12/20 01:01:22;;;;;;;6.12;5.69;;;;;;;-3.70;68.93;103143.48;442341;119;922539;-81
2022/12/20 01:02:26;;;;;;;6.46;6.01;;;;;;;-3.70;68.95;103146.16;442668;119;930545;-80
2022/12/20 01:03:30;;;;;;;6.48;5.98;;;;;;;-3.70;68.78;103143.48;442942;119;922809;-81
2022/12/20 01:04:33;;;;;;;7.00;6.49;;;;;;;-3.72;68.75;103138.20;442875;118;930504;-81
2022/12/20 01:05:37;;;;;;;6.81;6.24;;;;;;;-3.72;68.77;103142.66;442974;119;930532;-80
2022/12/20 01:06:40;;;;;;;7.76;7.16;;;;;;;-3.73;68.76;103147.12;438166;119;922619;-80
2022/12/20 01:07:43;;;;;;;7.42;6.92;;;;;;;-3.72;68.68;103142.66;435645;122;922557;-79
2022/12/20 01:08:47;;;;;;;7.71;7.21;;;;;;;-3.74;68.69;103140.05;435702;122;922663;-81
2022/12/20 01:09:50;;;;;;;7.60;7.02;;;;;;;-3.74;68.70;103144.52;435627;120;922562;-81
2022/12/20 01:11:09;;;;;;;7.52;6.92;;;;;;;-3.74;68.67;103140.05;435578;122;930528;-81
2022/12/20 01:12:12;;;;;;;7.77;7.16;;;;;;;-3.74;68.79;103136.52;435544;122;922944;-81
2022/12/20 01:13:15;;;;;;;7.58;6.99;;;;;;;-3.75;68.70;103132.14;435723;122;922478;-81
2022/12/20 01:14:19;;;;;;;7.82;7.17;;;;;;;-3.76;68.64;103125.06;427909;124;923016;-80
2022/12/20 01:15:22;;;;;;;7.88;7.24;;;;;;;-3.77;68.74;103126.86;441388;118;922647;-80
2022/12/20 01:16:31;;;;;;;6.92;6.42;;;;;;;-3.79;68.71;103126.91;447910;116;922500;-82
2022/12/20 01:17:35;;;;;;;7.43;6.91;;;;;;;-3.80;68.59;103122.50;446901;118;922723;-79
2022/12/20 01:18:38;;;;;;;7.15;6.65;;;;;;;-3.81;68.59;103126.12;447124;118;922544;-80
2022/12/20 01:19:42;;;;;;;7.57;6.97;;;;;;;-3.82;68.60;103121.72;449147;116;922623;-79
2022/12/20 01:20:45;;;;;;;7.05;6.56;;;;;;;-3.82;68.62;103127.05;449506;118;922572;-81
2022/12/20 01:21:48;;;;;;;6.97;6.47;;;;;;;-3.83;68.67;103117.30;450302;116;923063;-80
2022/12/20 01:22:51;;;;;;;6.94;6.36;;;;;;;-3.83;68.55;103127.09;449612;116;922552;-81
2022/12/20 01:23:55;;;;;;;6.90;6.36;;;;;;;-3.85;68.64;103119.15;449613;118;922840;-82
2022/12/20 01:24:58;;;;;;;6.22;5.80;;;;;;;-3.85;68.63;103127.15;449555;116;922532;-81
2022/12/20 01:26:08;;;;;;;6.75;6.25;;;;;;;-3.85;68.63;103127.15;450136;116;922709;-79
2022/12/20 01:27:08;;;;;;;6.68;6.08;;;;;;;-3.86;68.54;103120.07;449068;118;923731;-79
2022/12/20 01:28:11;;;;;;;6.53;5.96;;;;;;;-3.86;68.53;103119.23;449616;118;923009;-82
2022/12/20 01:29:15;;;;;;;6.66;6.19;;;;;;;-3.86;68.66;103119.23;449594;118;922580;-79
2022/12/20 01:30:18;;;;;;;6.59;6.11;;;;;;;-3.84;68.58;103125.35;449497;116;922696;-80
2022/12/20 01:31:22;;;;;;;6.75;6.28;;;;;;;-3.84;68.54;103122.69;450168;114;922654;-80
2022/12/20 01:32:26;;;;;;;6.55;5.96;;;;;;;-3.84;68.61;103125.35;449478;118;922577;-79
2022/12/20 01:33:29;;;;;;;6.58;6.09;;;;;;;-3.84;68.58;103114.69;449604;118;930562;-80
2022/12/20 01:34:32;;;;;;;5.89;5.49;;;;;;;-3.85;68.52;103121.81;449623;118;922459;-79
2022/12/20 01:35:35;;;;;;;7.03;6.53;;;;;;;-3.85;68.41;103126.28;449608;118;923300;-79
2022/12/20 01:36:38;;;;;;;7.12;6.62;;;;;;;-3.85;68.41;103127.15;455047;116;922429;-80
2022/12/20 01:37:42;;;;;;;6.79;6.21;;;;;;;-3.87;68.44;103123.69;457408;116;923175;-81
2022/12/20 01:38:45;;;;;;;7.29;6.71;;;;;;;-3.87;68.44;103125.48;457471;116;930538;-80
2022/12/20 01:39:49;;;;;;;6.36;5.85;;;;;;;-3.88;68.40;103121.95;457389;114;922485;-81
2022/12/20 01:40:53;;;;;;;7.01;6.50;;;;;;;-3.89;68.35;103120.21;457559;115;922854;-80
2022/12/20 01:41:56;;;;;;;7.55;6.95;;;;;;;-3.90;68.38;103118.47;449458;116;922444;-81
2022/12/20 01:43:00;;;;;;;7.01;6.43;;;;;;;-3.91;68.43;103119.39;440650;120;922911;-80
2022/12/20 01:44:21;;;;;;;7.18;6.67;;;;;;;-3.91;68.43;103123.84;448979;118;922477;-81
2022/12/20 01:45:28;;;;;;;6.91;6.32;;;;;;;-3.94;68.44;103122.19;448734;116;922511;-80
2022/12/20 01:46:33;;;;;;;6.88;6.39;;;;;;;-3.95;68.43;103125.77;449955;116;923001;-80
2022/12/20 01:47:37;;;;;;;6.50;6.00;;;;;;;-3.95;68.55;103125.77;449459;118;922743;-80
2022/12/20 01:48:43;;;;;;;6.27;5.80;;;;;;;-3.94;68.46;103124.85;440530;120;922654;-79
2022/12/20 01:49:49;;;;;;;6.29;5.83;;;;;;;-3.96;68.44;103116.03;441079;118;922710;-80
2022/12/20 01:50:53;;;;;;;5.95;5.51;;;;;;;-3.98;68.43;103119.70;449489;118;922725;-81
2022/12/20 01:52:08;;;;;;;6.29;5.82;;;;;;;-3.99;68.31;103115.30;456183;116;922475;-81
2022/12/20 01:53:11;;;;;;;6.06;5.56;;;;;;;-4.02;68.40;103105.61;455988;116;930540;-82
2022/12/20 01:54:18;;;;;;;5.93;5.46;;;;;;;-4.04;68.34;103107.48;456224;116;922534;-81
2022/12/20 01:55:25;;;;;;;5.71;5.24;;;;;;;-4.02;68.42;103113.61;459552;113;922544;-80
2022/12/20 01:56:28;;;;;;;6.28;5.78;;;;;;;-4.02;68.48;103102.08;458053;113;922662;-80
2022/12/20 01:57:54;;;;;;;5.53;5.12;;;;;;;-4.00;68.50;103114.43;449545;118;922525;-81
2022/12/20 01:58:59;;;;;;;6.46;6.02;;;;;;;-3.98;68.49;103109.05;449463;118;922530;-80
2022/12/20 02:00:03;;;;;;;6.01;5.52;;;;;;;-3.97;68.63;103113.45;449493;116;922632;-81
2022/12/20 02:01:09;;;;;;;6.43;5.93;;;;;;;-3.97;68.61;103111.63;449032;116;930506;-81
2022/12/20 02:02:13;;;;;;;5.81;5.31;;;;;;;-3.96;68.58;103124.03;448837;118;922999;-79
2022/12/20 02:03:16;;;;;;;6.23;5.76;;;;;;;-3.94;68.63;103115.98;440586;120;922581;-80
2022/12/20 02:04:19;;;;;;;7.24;6.66;;;;;;;-3.93;68.56;103113.27;448899;118;922558;-79
2022/12/20 02:05:23;;;;;;;7.44;6.84;;;;;;;-3.92;68.65;103108.81;448891;116;922558;-81
2022/12/20 02:06:26;;;;;;;7.16;6.66;;;;;;;-3.90;68.61;103117.59;449906;116;922537;-81
2022/12/20 02:07:32;;;;;;;7.01;6.47;;;;;;;-3.89;68.57;103112.22;449498;118;922585;-80
2022/12/20 02:08:35;;;;;;;7.60;7.01;;;;;;;-3.89;68.57;103114.87;449366;118;930893;-80
2022/12/20 02:09:39;;;;;;;7.36;6.84;;;;;;;-3.89;68.50;103111.34;449586;116;922724;-81
2022/12/20 02:11:16;;;;;;;7.74;7.14;;;;;;;-3.89;68.51;103114.87;449580;118;922459;-81
2022/12/20 02:12:25;;;;;;;7.91;7.09;;;;;;;-3.89;68.39;103122.00;449477;118;922970;-79
2022/12/20 02:13:41;;;;;;;7.55;6.95;;;;;;;-3.92;68.45;103117.67;449465;118;922581;-80
2022/12/20 02:14:54;;;;;;;7.92;7.09;;;;;;;-3.95;68.37;103116.91;449110;116;922698;-81
2022/12/20 02:15:57;;;;;;;7.36;6.57;;;;;;;-3.97;68.32;103122.28;449410;116;922671;-80
2022/12/20 02:17:11;;;;;;;7.08;6.49;;;;;;;-3.97;68.33;103124.95;449516;117;922509;-80
2022/12/20 02:18:21;;;;;;;7.33;6.84;;;;;;;-3.98;68.47;103123.24;449519;118;922557;-80
2022/12/20 02:19:30;;;;;;;6.53;6.09;;;;;;;-4.00;68.36;103127.75;449508;118;922542;-80
2022/12/20 02:20:55;;;;;;;7.17;6.59;;;;;;;-4.01;68.30;103127.80;449428;118;922962;-83
2022/12/20 02:22:11;;;;;;;6.89;6.40;;;;;;;-4.01;68.38;103131.34;449115;117;922508;-79
2022/12/20 02:23:18;;;;;;;6.83;6.33;;;;;;;-4.01;68.53;103131.34;449482;118;922592;-81
2022/12/20 02:24:41;;;;;;;6.84;6.33;;;;;;;-4.02;68.46;103129.59;449478;118;922613;-80
2022/12/20 02:25:53;;;;;;;7.39;6.79;;;;;;;-4.01;68.58;103134.00;449491;118;922586;-80
2022/12/20 02:27:26;;;;;;;8.97;6.64;;;;;;;-4.01;68.52;103136.66;450007;116;922937;-80
2022/12/20 02:28:39;;;;;;;7.32;6.72;;;;;;;-4.02;68.54;103142.91;442231;119;923745;-81
2022/12/20 02:30:02;;;;;;;7.12;6.62;;;;;;;-3.92;68.60;103135.46;474957;110;947129;-80
2022/12/20 02:31:08;;;;;;;8.11;7.51;;;;;;;-4.04;68.58;103141.25;457319;114;922630;-81
2022/12/20 02:32:27;;;;;;;7.23;6.73;;;;;;;-4.06;68.52;103138.64;457465;116;922546;-80
2022/12/20 02:33:30;;;;;;;6.79;6.33;;;;;;;-4.07;68.51;103136.89;457416;116;922474;-80
2022/12/20 02:34:37;;;;;;;7.08;6.53;;;;;;;-4.06;68.57;103143.09;457488;114;922421;-80
2022/12/20 02:35:41;;;;;;;8.11;7.46;;;;;;;-4.06;68.68;103141.30;457386;116;930556;-80
2022/12/20 02:36:45;;;;;;;6.72;6.12;;;;;;;-4.04;68.63;103141.25;451251;116;922974;-79
2022/12/20 02:37:52;;;;;;;7.19;6.71;;;;;;;-4.04;68.45;103141.25;452198;116;922482;-77
2022/12/20 02:38:55;;;;;;;6.88;6.36;;;;;;;-4.04;68.44;103136.80;457445;116;922879;-80
2022/12/20 02:39:59;;;;;;;6.92;6.42;;;;;;;-4.03;68.43;103135.88;457611;114;922980;-80
2022/12/20 02:41:24;;;;;;;7.24;6.25;;;;;;;-4.02;68.35;103131.38;457322;116;930451;-79
2022/12/20 02:42:29;;;;;;;6.92;6.42;;;;;;;-4.00;68.33;103142.87;451413;117;922366;-78
2022/12/20 02:45:15;;;;;;;7.43;6.83;;;;;;;-4.01;68.23;103135.80;454537;112;922158;-79
2022/12/20 02:46:20;;;;;;;7.09;6.56;;;;;;;-4.01;68.36;103131.34;456291;114;922027;-82
2022/12/20 02:47:35;;;;;;;6.92;6.38;;;;;;;-4.02;68.32;103140.25;450929;114;922112;-79
2022/12/20 02:48:40;;;;;;;6.67;6.16;;;;;;;-4.03;68.37;103133.21;450767;114;930277;-80
2022/12/20 02:49:46;;;;;;;7.17;6.67;;;;;;;-4.03;68.44;103141.20;450758;116;922177;-79
2022/12/20 02:50:53;;;;;;;7.08;6.58;;;;;;;-4.02;68.50;103129.59;450850;118;922172;-79
2022/12/20 02:51:58;;;;;;;6.29;5.78;;;;;;;-3.99;68.46;103139.28;451543;116;921995;-78
2022/12/20 02:53:02;;;;;;;6.29;5.77;;;;;;;-3.98;68.50;103133.90;450880;118;922411;-78
2022/12/20 02:54:05;;;;;;;6.98;6.42;;;;;;;-3.95;68.36;103136.44;450846;118;922145;-78
2022/12/20 02:55:10;;;;;;;6.38;5.94;;;;;;;-3.95;68.23;103128.44;453358;113;930095;-78
2022/12/20 02:56:23;;;;;;;7.15;6.65;;;;;;;-3.95;68.26;103128.44;463514;112;929913;-79
2022/12/20 02:57:49;;;;;;;6.73;6.13;;;;;;;-3.95;68.19;103135.56;449290;117;922008;-81
2022/12/20 02:59:03;;;;;;;7.73;7.04;;;;;;;-3.95;68.03;103132.89;451002;115;922509;-79
2022/12/20 03:00:21;;;;;;;7.43;6.81;;;;;;;-3.99;68.14;103139.28;467413;110;1204049;-79
2022/12/20 03:01:27;;;;;;;6.99;6.49;;;;;;;-3.99;68.14;103139.28;454978;116;922464;-77
2022/12/20 03:03:43;;;;;;;6.54;6.09;;;;;;;-3.96;67.95;103137.36;423579;125;922452;-81
2022/12/20 03:04:47;;;;;;;6.94;6.44;;;;;;;-3.94;67.99;103137.30;444318;116;922778;-80
2022/12/20 03:05:54;;;;;;;7.07;6.54;;;;;;;-3.92;68.12;103132.80;448324;118;930491;-81
2022/12/20 03:07:05;;;;;;;6.74;6.20;;;;;;;-3.91;68.00;103134.50;448785;116;922409;-78
2022/12/20 03:08:10;;;;;;;7.30;6.78;;;;;;;-3.89;68.19;103132.66;448237;118;922938;-80
2022/12/20 03:09:13;;;;;;;7.25;6.70;;;;;;;-3.88;67.98;103129.95;448154;118;922496;-80
2022/12/20 03:10:17;;;;;;;7.39;6.53;;;;;;;-3.87;67.87;103122.82;448262;116;922549;-80
2022/12/20 03:11:20;;;;;;;7.30;6.74;;;;;;;-3.88;67.78;103126.41;449417;114;922749;-80
2022/12/20 03:12:23;;;;;;;7.37;6.79;;;;;;;-3.90;67.69;103121.13;448282;118;930554;-78
2022/12/20 03:13:26;;;;;;;7.28;6.73;;;;;;;-3.91;67.70;103122.05;448324;118;922428;-80
2022/12/20 03:14:34;;;;;;;7.68;7.06;;;;;;;-3.92;67.64;103124.80;447879;116;922712;-79
2022/12/20 03:15:38;;;;;;;6.80;6.30;;;;;;;-3.93;67.62;103113.27;448257;118;922836;-80
2022/12/20 03:16:42;;;;;;;7.41;6.85;;;;;;;-3.95;67.56;103107.13;449317;116;922424;-79
2022/12/20 03:17:45;;;;;;;7.42;6.86;;;;;;;-3.95;67.59;103109.78;448213;118;930412;-79
2022/12/20 03:18:48;;;;;;;7.47;6.88;;;;;;;-3.94;67.75;103114.19;448336;118;922952;-79
2022/12/20 03:19:51;;;;;;;8.34;7.69;;;;;;;-3.92;67.69;103120.34;448297;116;922505;-82
2022/12/20 03:20:55;;;;;;;7.01;6.45;;;;;;;-3.91;67.75;103122.05;448242;116;922461;-80
2022/12/20 03:21:58;;;;;;;7.42;6.84;;;;;;;-3.91;67.66;103119.39;448695;116;922317;-80
2022/12/20 03:23:01;;;;;;;8.13;7.53;;;;;;;-3.90;67.62;103125.59;448127;118;922569;-80
2022/12/20 03:24:05;;;;;;;8.11;7.44;;;;;;;-3.91;67.50;103119.39;448142;118;930472;-81
2022/12/20 03:25:08;;;;;;;8.18;7.48;;;;;;;-3.92;67.60;103120.34;439144;119;922587;-79
2022/12/20 03:26:11;;;;;;;7.99;7.33;;;;;;;-3.92;67.61;103125.67;442397;116;931069;-80
2022/12/20 03:27:16;;;;;;;7.82;7.25;;;;;;;-3.92;67.55;103124.80;457401;115;922492;-80
2022/12/20 03:28:20;;;;;;;8.94;8.19;;;;;;;-3.91;67.62;103124.72;457655;116;922578;-81
2022/12/20 03:29:23;;;;;;;7.71;7.11;;;;;;;-3.91;67.50;103122.05;457649;116;923103;-80
2022/12/20 03:30:26;;;;;;;7.99;7.41;;;;;;;-3.90;67.43;103117.59;457672;114;922551;-80
2022/12/20 03:31:29;;;;;;;7.93;7.37;;;;;;;-3.91;67.44;103116.72;457382;114;922465;-79
2022/12/20 03:32:32;;;;;;;7.56;6.96;;;;;;;-3.88;67.62;103118.41;457545;116;922709;-79
2022/12/20 03:33:36;;;;;;;7.60;7.08;;;;;;;-3.88;67.53;103119.28;457577;116;922829;-79
2022/12/20 03:34:41;;;;;;;6.90;6.40;;;;;;;-3.89;67.47;103112.22;457454;114;922554;-80
2022/12/20 03:35:47;;;;;;;7.45;6.85;;;;;;;-3.88;67.33;103116.62;450557;117;922950;-80
2022/12/20 03:36:50;;;;;;;7.61;7.11;;;;;;;-3.89;67.30;103114.00;450596;116;930361;-79
2022/12/20 03:37:54;;;;;;;6.54;6.04;;;;;;;-3.90;67.17;103113.13;457521;116;930436;-80
2022/12/20 03:38:57;;;;;;;7.65;7.06;;;;;;;-3.90;67.13;103117.59;457701;116;922618;-79
2022/12/20 03:40:01;;;;;;;7.11;6.54;;;;;;;-3.92;67.01;103114.14;450659;117;922874;-80
2022/12/20 03:41:05;;;;;;;6.84;6.34;;;;;;;-3.95;66.94;103112.45;450825;116;922483;-79
2022/12/20 03:42:08;;;;;;;7.02;6.57;;;;;;;-3.97;66.88;103118.78;457572;115;930424;-80
2022/12/20 03:43:11;;;;;;;6.87;6.33;;;;;;;-3.99;66.83;103117.97;457649;116;930449;-79
2022/12/20 03:44:14;;;;;;;7.01;6.39;;;;;;;-4.00;66.84;103121.55;457826;116;922846;-80
2022/12/20 03:45:18;;;;;;;7.07;6.46;;;;;;;-3.99;66.96;103126.83;450552;115;923044;-79
2022/12/20 03:46:21;;;;;;;6.70;6.20;;;;;;;-3.98;67.00;103123.24;450497;117;922574;-81
2022/12/20 03:47:25;;;;;;;6.72;6.21;;;;;;;-3.99;66.89;103116.17;450588;117;922555;-79
2022/12/20 03:48:28;;;;;;;6.49;5.99;;;;;;;-3.98;66.92;103111.71;450933;116;930453;-80
2022/12/20 03:49:31;;;;;;;6.59;6.09;;;;;;;-3.98;66.89;103117.04;457660;116;922973;-79
2022/12/20 03:50:36;;;;;;;7.30;6.69;;;;;;;-4.00;66.86;103117.09;450607;117;922638;-80
2022/12/20 03:51:39;;;;;;;7.05;6.12;;;;;;;-4.01;66.69;103109.15;450783;116;922535;-79
2022/12/20 03:52:42;;;;;;;6.42;5.93;;;;;;;-4.02;66.73;103118.06;457615;116;923076;-80
2022/12/20 03:53:45;;;;;;;6.43;6.02;;;;;;;-4.03;66.79;103119.02;457535;116;922466;-81
2022/12/20 03:54:49;;;;;;;6.78;6.30;;;;;;;-4.05;66.75;103119.07;450428;116;930954;-80
2022/12/20 03:55:54;;;;;;;6.57;6.08;;;;;;;-4.05;66.68;103118.20;443229;117;930367;-79
2022/12/20 03:56:58;;;;;;;6.89;6.39;;;;;;;-4.07;66.63;103115.58;457026;116;922478;-80
2022/12/20 03:58:01;;;;;;;6.54;6.04;;;;;;;-4.06;66.65;103116.45;450460;117;930458;-81
2022/12/20 03:59:06;;;;;;;6.00;5.56;;;;;;;-4.07;66.69;103115.58;450864;116;922771;-79
2022/12/20 04:00:11;;;;;;;6.84;6.32;;;;;;;-4.07;66.62;103115.58;457541;114;922570;-82
2022/12/20 04:01:20;;;;;;;6.32;5.92;;;;;;;-4.08;66.57;103119.17;455029;116;922472;-79
2022/12/20 04:02:30;;;;;;;6.84;6.34;;;;;;;-4.00;66.62;103117.09;477223;110;947121;-80
2022/12/20 04:03:34;;;;;;;6.78;6.30;;;;;;;-4.10;66.49;103120.17;465633;113;922448;-78
2022/12/20 04:04:37;;;;;;;7.36;6.81;;;;;;;-4.13;66.44;103118.48;465011;114;930505;-79
2022/12/20 04:05:41;;;;;;;7.03;6.46;;;;;;;-4.14;66.41;103118.56;450644;117;922943;-80
2022/12/20 04:06:44;;;;;;;7.62;7.03;;;;;;;-4.15;66.44;103117.69;445573;116;922560;-79
2022/12/20 04:07:48;;;;;;;7.32;6.76;;;;;;;-4.16;66.54;103115.95;449755;118;922460;-79
2022/12/20 04:08:51;;;;;;;7.22;6.57;;;;;;;-4.15;66.48;103117.69;441514;120;922457;-80
2022/12/20 04:09:59;;;;;;;7.52;6.91;;;;;;;-4.15;66.47;103114.16;449341;116;922570;-79
2022/12/20 04:11:15;;;;;;;7.49;6.93;;;;;;;-4.16;66.46;103113.28;450216;117;922484;-81
2022/12/20 04:12:26;;;;;;;7.73;7.04;;;;;;;-4.15;66.44;103117.69;449557;117;922546;-81
2022/12/20 04:13:29;;;;;;;7.64;7.08;;;;;;;-4.16;66.56;103120.41;449843;118;922529;-80
2022/12/20 04:14:32;;;;;;;7.29;6.72;;;;;;;-4.16;66.48;103118.61;449834;118;922935;-79
2022/12/20 04:15:35;;;;;;;8.02;7.38;;;;;;;-4.19;66.39;103113.41;449861;118;922653;-80
2022/12/20 04:16:39;;;;;;;7.50;6.70;;;;;;;-4.21;66.41;103121.45;455345;114;922705;-80
2022/12/20 04:17:42;;;;;;;7.33;6.63;;;;;;;-4.24;66.35;103123.34;457547;116;922438;-78
2022/12/20 04:18:45;;;;;;;7.48;6.95;;;;;;;-4.29;66.18;103117.33;457651;116;922505;-80
2022/12/20 04:19:48;;;;;;;7.30;6.80;;;;;;;-4.31;66.31;103112.08;457538;114;922884;-81
2022/12/20 04:20:53;;;;;;;7.08;6.58;;;;;;;-4.33;66.30;103118.37;457611;115;922560;-80
2022/12/20 04:21:58;;;;;;;7.96;7.36;;;;;;;-4.35;66.19;103121.09;456752;116;922552;-79
2022/12/20 04:23:05;;;;;;;7.89;7.29;;;;;;;-4.36;66.29;103116.71;457241;115;922578;-80
2022/12/20 04:24:09;;;;;;;7.50;6.94;;;;;;;-4.40;66.32;103111.53;457549;116;922870;-79
2022/12/20 04:25:18;;;;;;;7.82;7.27;;;;;;;-4.40;66.32;103111.53;454838;116;922478;-82
2022/12/20 04:26:21;;;;;;;9.87;7.30;;;;;;;-4.41;66.14;103121.30;457392;114;922486;-77
2022/12/20 04:27:25;;;;;;;7.92;7.34;;;;;;;-4.42;66.11;103118.73;457571;115;922864;-79
2022/12/20 04:28:29;;;;;;;8.19;7.59;;;;;;;-4.44;66.09;103115.23;457559;115;922905;-79
2022/12/20 04:29:32;;;;;;;8.15;7.48;;;;;;;-4.48;66.08;103114.49;457537;116;922645;-77
2022/12/20 04:30:35;;;;;;;7.67;7.08;;;;;;;-4.49;66.04;103122.53;450577;117;923062;-79
2022/12/20 04:31:39;;;;;;;8.46;7.86;;;;;;;-4.51;66.07;103124.37;443916;117;922586;-80
2022/12/20 04:32:42;;;;;;;8.37;7.68;;;;;;;-4.54;66.08;103125.37;449730;118;922867;-79
2022/12/20 04:33:47;;;;;;;8.43;7.83;;;;;;;-4.55;66.16;103122.75;441429;120;922602;-79
2022/12/20 04:34:51;;;;;;;8.24;7.65;;;;;;;-4.55;66.22;103122.75;441301;118;930433;-78
2022/12/20 04:35:54;;;;;;;8.08;7.49;;;;;;;-4.58;66.24;103123.75;441374;120;930558;-81
2022/12/20 04:36:58;;;;;;;9.06;8.23;;;;;;;-4.59;66.15;103127.33;457066;116;922496;-79
2022/12/20 04:38:05;;;;;;;8.76;8.06;;;;;;;-4.62;66.15;103130.95;456665;115;922816;-79
2022/12/20 04:39:08;;;;;;;8.25;7.65;;;;;;;-4.64;66.18;103131.95;457603;115;922508;-80
2022/12/20 04:40:13;;;;;;;8.16;7.58;;;;;;;-4.67;66.19;103124.92;456111;114;930499;-79
2022/12/20 04:41:21;;;;;;;8.55;7.95;;;;;;;-4.69;66.19;103126.80;456687;114;922679;-78
2022/12/20 04:42:27;;;;;;;8.50;7.83;;;;;;;-4.70;66.21;103135.70;457224;115;922449;-78
2022/12/20 04:43:30;;;;;;;8.67;8.06;;;;;;;-4.71;66.23;103136.62;457673;115;922619;-80
2022/12/20 04:44:34;;;;;;;8.66;8.01;;;;;;;-4.73;66.32;103130.47;457566;114;922484;-78
2022/12/20 04:45:38;;;;;;;8.52;7.89;;;;;;;-4.75;66.25;103140.31;457590;116;922838;-79
2022/12/20 04:46:41;;;;;;;8.49;7.87;;;;;;;-4.77;66.26;103136.83;457526;114;922375;-79
2022/12/20 04:47:46;;;;;;;8.10;7.51;;;;;;;-4.78;66.33;103144.86;457336;115;930492;-80
2022/12/20 04:48:52;;;;;;;8.67;8.08;;;;;;;-4.76;66.40;103145.69;457495;116;922885;-80
2022/12/20 04:49:57;;;;;;;9.48;8.72;;;;;;;-4.76;66.48;103148.34;457040;115;922573;-81
2022/12/20 04:51:01;;;;;;;9.06;8.41;;;;;;;-4.76;66.59;103145.69;457401;114;922598;-79
2022/12/20 04:54:47;;;;;;;9.05;8.38;;;;;;;-4.74;66.55;103135.87;457407;116;922914;-81
2022/12/20 04:55:55;;;;;;;9.46;8.76;;;;;;;-4.74;66.53;103141.19;449572;114;922457;-80
2022/12/20 04:56:59;;;;;;;9.54;8.82;;;;;;;-4.75;66.73;103131.46;450355;117;922619;-79
2022/12/20 04:58:03;;;;;;;8.55;7.85;;;;;;;-4.74;66.74;103143.86;450901;116;922632;-79
2022/12/20 04:59:08;;;;;;;9.25;8.45;;;;;;;-4.70;66.83;103134.83;457214;115;922604;-80
2022/12/20 05:00:14;;;;;;;9.42;8.64;;;;;;;-4.69;66.88;103137.45;457537;114;923193;-80
2022/12/20 05:01:19;;;;;;;9.29;8.61;;;;;;;-4.68;66.77;103131.17;450151;116;922732;-76
2022/12/20 05:02:24;;;;;;;8.99;8.38;;;;;;;-4.66;66.82;103132.00;451461;116;922889;-79
2022/12/20 05:03:33;;;;;;;9.41;8.58;;;;;;;-4.63;66.90;103126.55;457006;115;922474;-79
2022/12/20 05:04:37;;;;;;;9.46;8.71;;;;;;;-4.59;66.96;103132.65;457490;115;922777;-78
2022/12/20 05:05:40;;;;;;;9.32;8.58;;;;;;;-4.53;67.17;103131.56;457544;115;930500;-81
2022/12/20 05:06:44;;;;;;;10.05;9.22;;;;;;;-4.53;67.17;103131.56;457347;115;930455;-79